createdAt,value
2019-01-22T00:00:58.906Z,-0.80
2019-01-22T00:03:27.834Z,-0.70
2019-01-22T00:05:56.758Z,-0.70
2019-01-22T00:08:25.790Z,-0.60
2019-01-22T00:10:54.713Z,-0.60
2019-01-22T00:13:23.652Z,-0.50
2019-01-22T00:15:52.577Z,-0.50
2019-01-22T00:18:21.428Z,-0.50
2019-01-22T00:20:50.673Z,-0.50
2019-01-22T00:23:19.590Z,-0.50
2019-01-22T00:25:48.443Z,-0.60
2019-01-22T00:28:17.368Z,-0.50
2019-01-22T00:30:46.359Z,-0.60
2019-01-22T00:33:15.413Z,-0.70
2019-01-22T00:35:44.257Z,-0.80
2019-01-22T00:38:13.364Z,-0.80
2019-01-22T00:40:42.288Z,-0.80
2019-01-22T00:43:11.199Z,-0.90
2019-01-22T00:45:40.191Z,-1.00
2019-01-22T00:48:09.124Z,-1.00
2019-01-22T00:50:38.797Z,-1.00
2019-01-22T00:53:10.138Z,-1.00
2019-01-22T00:55:38.373Z,-0.90
2019-01-22T00:58:07.407Z,-0.80
2019-01-22T01:00:36.403Z,-0.80
2019-01-22T01:03:24.336Z,-0.70
2019-01-22T01:05:53.394Z,-0.70
2019-01-22T01:08:22.375Z,-0.70
2019-01-22T01:10:51.553Z,-0.80
2019-01-22T01:13:20.549Z,-0.80
2019-01-22T01:15:49.400Z,-0.80
2019-01-22T01:18:18.264Z,-0.80
2019-01-22T01:20:47.116Z,-0.80
2019-01-22T01:23:17.019Z,-0.80
2019-01-22T01:25:46.136Z,-0.90
2019-01-22T01:28:15.142Z,-1.10
2019-01-22T01:30:44.128Z,-1.00
2019-01-22T01:33:12.973Z,-1.00
2019-01-22T01:35:41.892Z,-1.00
2019-01-22T01:38:10.812Z,-1.10
2019-01-22T01:40:39.664Z,-1.00
2019-01-22T01:43:08.991Z,-1.00
2019-01-22T01:45:37.901Z,-1.00
2019-01-22T01:48:06.927Z,-0.90
2019-01-22T01:50:35.850Z,-1.00
2019-01-22T01:53:04.853Z,-0.90
2019-01-22T01:55:33.772Z,-0.90
2019-01-22T01:58:02.696Z,-0.90
2019-01-22T02:00:31.626Z,-0.90
2019-01-22T02:03:00.481Z,-0.90
2019-01-22T02:05:29.506Z,-0.80
2019-01-22T02:07:58.416Z,-0.80
2019-01-22T02:10:27.700Z,-0.80
2019-01-22T02:13:11.769Z,-0.80
2019-01-22T02:19:33.537Z,-0.80
2019-01-22T02:22:25.612Z,-0.80
2019-01-22T02:25:26.096Z,-0.80
2019-01-22T02:28:35.114Z,-0.90
2019-01-22T02:31:47.763Z,-0.90
2019-01-22T02:34:31.992Z,-0.90
2019-01-22T02:37:39.929Z,-0.90
2019-01-22T02:40:32.988Z,-0.90
2019-01-22T02:43:58.448Z,-0.90
2019-01-22T02:46:45.505Z,-0.80
2019-01-22T02:49:47.282Z,-0.80
2019-01-22T02:52:56.932Z,-0.80
2019-01-22T02:55:36.765Z,-1.00
2019-01-22T02:58:30.153Z,-1.10
2019-01-22T03:01:29.832Z,-1.00
2019-01-22T03:04:37.406Z,-1.10
2019-01-22T03:07:37.556Z,-1.20
2019-01-22T03:10:47.128Z,-1.30
2019-01-22T03:14:06.356Z,-1.30
2019-01-22T03:17:04.244Z,-1.30
2019-01-22T03:19:49.962Z,-1.20
2019-01-22T03:23:07.920Z,-1.20
2019-01-22T03:25:46.208Z,-1.10
2019-01-22T03:28:47.619Z,-1.10
2019-01-22T03:31:45.917Z,-1.10
2019-01-22T03:34:25.475Z,-1.10
2019-01-22T03:37:30.443Z,-1.00
2019-01-22T03:40:27.465Z,-1.10
2019-01-22T03:43:32.197Z,-1.00
2019-01-22T03:46:51.681Z,-1.10
2019-01-22T03:49:32.873Z,-1.10
2019-01-22T03:52:29.840Z,-1.10
2019-01-22T03:55:53.089Z,-1.20
2019-01-22T03:58:22.334Z,-1.30
2019-01-22T04:00:58.034Z,-1.40
2019-01-22T04:03:26.976Z,-1.40
2019-01-22T04:05:58.582Z,-1.40
2019-01-22T04:08:28.672Z,-1.60
2019-01-22T04:11:37.329Z,-1.60
2019-01-22T04:14:06.311Z,-1.60
2019-01-22T04:16:35.315Z,-1.80
2019-01-22T04:19:04.481Z,-2.00
2019-01-22T04:21:40.239Z,-2.10
2019-01-22T04:24:53.157Z,-2.20
2019-01-22T04:27:52.178Z,-2.20
2019-01-22T04:30:39.984Z,-2.30
2019-01-22T04:33:55.948Z,-2.30
2019-01-22T04:37:11.767Z,-2.20
2019-01-22T04:40:26.762Z,-2.30
2019-01-22T04:43:40.015Z,-2.30
2019-01-22T04:46:46.293Z,-2.10
2019-01-22T04:49:49.845Z,-2.00
2019-01-22T04:53:08.867Z,-1.90
2019-01-22T04:56:24.653Z,-1.90
2019-01-22T04:59:04.601Z,-2.00
2019-01-22T05:02:07.884Z,-2.00
2019-01-22T05:04:44.877Z,-1.90
2019-01-22T05:07:53.819Z,-1.80
2019-01-22T05:11:02.855Z,-1.90
2019-01-22T05:13:47.596Z,-1.80
2019-01-22T05:16:36.638Z,-1.70
2019-01-22T05:19:27.276Z,-1.70
2019-01-22T05:22:22.100Z,-1.60
2019-01-22T05:25:16.949Z,-1.50
2019-01-22T05:28:29.581Z,-1.40
2019-01-22T05:31:23.775Z,-1.40
2019-01-22T05:34:35.074Z,-1.40
2019-01-22T05:37:47.411Z,-1.40
2019-01-22T05:40:55.676Z,-1.40
2019-01-22T05:44:21.378Z,-1.40
2019-01-22T05:47:47.155Z,-1.40
2019-01-22T05:50:43.065Z,-1.50
2019-01-22T05:54:14.265Z,-1.40
2019-01-22T05:57:13.818Z,-1.40
2019-01-22T06:00:05.235Z,-1.30
2019-01-22T06:02:45.504Z,-1.20
2019-01-22T06:05:46.312Z,-1.40
2019-01-22T06:09:14.326Z,-1.50
2019-01-22T06:12:32.169Z,-1.50
2019-01-22T06:15:42.897Z,-1.40
2019-01-22T06:18:39.176Z,-1.40
2019-01-22T06:21:47.366Z,-1.30
2019-01-22T06:24:37.663Z,-1.20
2019-01-22T06:27:24.449Z,-1.20
2019-01-22T06:30:31.158Z,-1.20
2019-01-22T06:33:32.289Z,-1.20
2019-01-22T06:36:33.001Z,-1.20
2019-01-22T06:39:12.546Z,-1.20
2019-01-22T06:42:25.362Z,-1.20
2019-01-22T06:45:30.656Z,-1.20
2019-01-22T06:48:39.584Z,-1.30
2019-01-22T06:51:43.652Z,-1.30
2019-01-22T06:54:59.329Z,-1.20
2019-01-22T06:57:58.490Z,-1.20
2019-01-22T07:01:03.841Z,-1.20
2019-01-22T07:03:59.549Z,-1.20
2019-01-22T07:07:18.921Z,-1.20
2019-01-22T07:10:00.062Z,-1.10
2019-01-22T07:12:30.852Z,-1.00
2019-01-22T07:15:42.603Z,-1.10
2019-01-22T07:19:02.036Z,-1.10
2019-01-22T07:21:49.225Z,-1.10
2019-01-22T07:24:56.027Z,-1.10
2019-01-22T07:28:18.348Z,-1.10
2019-01-22T07:31:49.789Z,-1.10
2019-01-22T07:35:02.349Z,-1.10
2019-01-22T07:38:17.468Z,-1.10
2019-01-22T07:41:32.801Z,-1.00
2019-01-22T07:44:46.457Z,-1.00
2019-01-22T07:47:44.364Z,-0.90
2019-01-22T07:50:37.188Z,-0.90
2019-01-22T07:53:23.160Z,-0.90
2019-01-22T07:56:54.317Z,-0.80
2019-01-22T07:59:38.940Z,-0.80
2019-01-22T08:03:03.538Z,-0.70
2019-01-22T08:06:21.732Z,-0.70
2019-01-22T08:09:15.196Z,-0.70
2019-01-22T08:12:17.460Z,-0.70
2019-01-22T08:15:20.724Z,-0.70
2019-01-22T08:18:30.165Z,-0.60
2019-01-22T08:21:52.353Z,-0.50
2019-01-22T08:25:01.244Z,-0.50
2019-01-22T08:28:11.792Z,-0.40
2019-01-22T08:31:03.013Z,-0.40
2019-01-22T08:34:08.264Z,-0.30
2019-01-22T08:37:22.828Z,-0.30
2019-01-22T08:40:16.546Z,-0.20
2019-01-22T08:43:21.660Z,-0.10
2019-01-22T08:46:22.249Z,-0.10
2019-01-22T08:49:07.283Z,-0.10
2019-01-22T08:52:09.245Z,-0.10
2019-01-22T08:55:10.409Z,0.00
2019-01-22T08:58:03.289Z,0.10
2019-01-22T09:00:45.636Z,0.20
2019-01-22T09:03:38.508Z,0.30
2019-01-22T09:06:23.932Z,0.40
2019-01-22T09:09:13.976Z,0.50
2019-01-22T09:12:42.274Z,0.50
2019-01-22T09:15:43.189Z,0.40
2019-01-22T09:18:20.777Z,0.50
2019-01-22T09:21:28.082Z,0.40
2019-01-22T09:24:53.544Z,0.40
2019-01-22T09:27:53.749Z,0.50
2019-01-22T09:30:54.298Z,0.40
2019-01-22T09:34:04.090Z,0.50
2019-01-22T09:37:08.501Z,0.50
2019-01-22T09:39:37.531Z,0.30
2019-01-22T09:42:06.547Z,0.40
2019-01-22T09:44:35.588Z,0.40
2019-01-22T09:47:04.588Z,0.40
2019-01-22T09:49:33.572Z,0.40
2019-01-22T09:52:02.641Z,0.40
2019-01-22T09:54:31.632Z,0.40
2019-01-22T09:57:00.486Z,0.50
2019-01-22T09:59:29.445Z,0.60
2019-01-22T10:01:58.361Z,0.60
2019-01-22T10:04:27.332Z,0.60
2019-01-22T10:06:56.300Z,0.60
2019-01-22T10:09:25.234Z,0.70
2019-01-22T10:11:54.232Z,0.80
2019-01-22T10:14:23.206Z,0.80
2019-01-22T10:16:52.164Z,0.80
2019-01-22T10:19:21.181Z,0.80
2019-01-22T10:21:50.167Z,0.90
2019-01-22T10:24:19.028Z,0.90
2019-01-22T10:26:47.981Z,1.00
2019-01-22T10:29:19.128Z,1.10
2019-01-22T10:31:50.459Z,1.20
2019-01-22T10:34:18.748Z,1.30
2019-01-22T10:36:47.745Z,1.50
2019-01-22T10:39:17.929Z,1.50
2019-01-22T10:41:47.067Z,1.60
2019-01-22T10:44:16.134Z,1.70
2019-01-22T10:46:45.057Z,1.90
2019-01-22T10:49:14.044Z,2.10
2019-01-22T10:51:42.907Z,2.10
2019-01-22T10:54:34.305Z,2.20
2019-01-22T10:57:03.321Z,2.20
2019-01-22T10:59:32.164Z,2.30
2019-01-22T11:02:01.150Z,2.50
2019-01-22T11:04:29.996Z,2.70
2019-01-22T11:06:59.008Z,2.80
2019-01-22T11:09:27.880Z,2.90
2019-01-22T11:11:57.877Z,3.00
2019-01-22T11:14:26.864Z,2.90
2019-01-22T11:16:55.791Z,3.00
2019-01-22T11:19:27.900Z,3.00
2019-01-22T11:21:55.331Z,3.00
2019-01-22T11:24:30.194Z,2.90
2019-01-22T11:26:55.346Z,2.90
2019-01-22T11:29:25.001Z,3.00
2019-01-22T11:31:53.913Z,3.10
2019-01-22T11:34:23.919Z,3.30
2019-01-22T11:36:52.940Z,3.50
2019-01-22T11:39:21.876Z,3.70
2019-01-22T11:41:54.201Z,3.80
2019-01-22T11:44:23.068Z,3.80
2019-01-22T11:46:54.617Z,3.70
2019-01-22T11:49:23.575Z,3.80
2019-01-22T11:51:52.512Z,4.20
2019-01-22T11:54:21.504Z,4.30
2019-01-22T11:56:50.428Z,4.20
2019-01-22T11:59:19.278Z,4.20
2019-01-22T12:01:48.189Z,4.10
2019-01-22T12:04:17.104Z,4.00
2019-01-22T12:06:46.085Z,4.20
2019-01-22T12:09:15.046Z,4.20
2019-01-22T12:11:43.947Z,4.10
2019-01-22T12:14:12.865Z,4.00
2019-01-22T12:16:41.779Z,4.00
2019-01-22T12:19:10.653Z,4.00
2019-01-22T12:21:39.640Z,4.10
2019-01-22T12:24:09.208Z,4.10
2019-01-22T12:26:38.181Z,4.10
2019-01-22T12:29:07.917Z,4.30
2019-01-22T12:31:36.829Z,4.10
2019-01-22T12:34:05.836Z,3.90
2019-01-22T12:36:34.681Z,3.90
2019-01-22T12:39:05.385Z,3.90
2019-01-22T12:41:34.293Z,3.40
2019-01-22T12:44:03.309Z,3.10
2019-01-22T12:46:32.229Z,2.80
2019-01-22T12:49:01.073Z,2.60
2019-01-22T12:51:30.069Z,2.60
2019-01-22T12:53:58.989Z,2.60
2019-01-22T12:56:27.936Z,2.60
2019-01-22T12:58:56.770Z,2.70
2019-01-22T13:01:25.672Z,2.80
2019-01-22T13:03:54.520Z,2.80
2019-01-22T13:06:23.497Z,2.80
2019-01-22T13:08:52.421Z,2.70
2019-01-22T13:11:21.323Z,2.50
2019-01-22T13:13:50.245Z,2.30
2019-01-22T13:16:19.272Z,2.00
2019-01-22T13:18:48.130Z,2.00
2019-01-22T13:21:16.996Z,1.90
2019-01-22T13:23:53.252Z,1.80
2019-01-22T13:26:22.250Z,1.80
2019-01-22T13:28:51.116Z,1.90
2019-01-22T13:31:19.978Z,1.90
2019-01-22T13:33:48.896Z,1.90
2019-01-22T13:36:17.892Z,1.90
2019-01-22T13:38:46.741Z,1.80
2019-01-22T13:41:15.600Z,1.70
2019-01-22T13:43:44.432Z,1.50
2019-01-22T13:46:13.353Z,1.40
2019-01-22T13:48:42.354Z,1.30
2019-01-22T13:51:11.357Z,1.20
2019-01-22T13:53:40.220Z,1.20
2019-01-22T13:56:09.067Z,1.00
2019-01-22T13:58:37.936Z,0.80
2019-01-22T14:01:06.920Z,0.50
2019-01-22T14:03:35.873Z,0.60
2019-01-22T14:06:04.982Z,0.50
2019-01-22T14:08:33.985Z,0.50
2019-01-22T14:11:02.816Z,0.60
2019-01-22T14:13:31.672Z,0.70
2019-01-22T14:16:00.604Z,0.80
2019-01-22T14:18:29.432Z,0.90
2019-01-22T14:20:58.299Z,1.00
2019-01-22T14:23:27.124Z,0.80
2019-01-22T14:25:56.123Z,0.60
2019-01-22T14:28:24.954Z,0.60
2019-01-22T14:30:53.815Z,0.40
2019-01-22T14:33:22.732Z,0.30
2019-01-22T14:35:51.641Z,0.20
2019-01-22T14:38:20.646Z,-0.10
2019-01-22T14:40:49.544Z,-0.20
2019-01-22T14:43:18.561Z,-0.30
2019-01-22T14:45:47.476Z,-0.40
2019-01-22T14:48:16.550Z,-0.40
2019-01-22T14:50:45.464Z,-0.40
2019-01-22T14:53:14.414Z,-0.40
2019-01-22T14:55:43.609Z,-0.30
2019-01-22T14:58:12.931Z,-0.30
2019-01-22T15:00:41.833Z,-0.30
2019-01-22T15:03:10.893Z,-0.40
2019-01-22T15:05:40.992Z,-0.40
2019-01-22T15:08:09.849Z,-0.40
2019-01-22T15:10:38.776Z,-0.40
2019-01-22T15:13:07.925Z,-0.30
2019-01-22T15:15:38.945Z,0.80
2019-01-22T15:18:07.808Z,-0.40
2019-01-22T15:20:36.664Z,-0.40
2019-01-22T15:23:05.691Z,-0.30
2019-01-22T15:25:34.628Z,-0.30
2019-01-22T15:28:03.540Z,-0.30
2019-01-22T15:30:37.211Z,-0.50
2019-01-22T15:33:07.500Z,-0.40
2019-01-22T15:35:36.504Z,-0.60
2019-01-22T15:38:05.680Z,-0.60
2019-01-22T15:40:34.705Z,-0.60
2019-01-22T15:43:03.637Z,-0.60
2019-01-22T15:45:32.658Z,-0.50
2019-01-22T15:48:01.715Z,-0.50
2019-01-22T15:50:30.547Z,-0.50
2019-01-22T15:52:59.464Z,-0.60
2019-01-22T15:55:30.793Z,-0.60
2019-01-22T15:58:01.794Z,-0.70
2019-01-22T16:00:30.802Z,-0.60
2019-01-22T16:02:59.713Z,-0.70
2019-01-22T16:05:29.256Z,-0.70
2019-01-22T16:07:58.190Z,-0.70
2019-01-22T16:10:27.112Z,-0.80
2019-01-22T16:12:56.139Z,-1.00
2019-01-22T16:15:25.127Z,-1.10
2019-01-22T16:17:54.157Z,-1.20
2019-01-22T16:20:27.414Z,-1.30
2019-01-22T16:22:56.445Z,-1.30
2019-01-22T16:25:25.895Z,-1.30
2019-01-22T16:27:54.825Z,-1.40
2019-01-22T16:30:25.645Z,-1.40
2019-01-22T16:32:54.581Z,-1.40
2019-01-22T16:35:24.942Z,-1.30
2019-01-22T16:37:54.050Z,-1.40
2019-01-22T16:40:22.973Z,-1.40
2019-01-22T16:42:51.928Z,-1.40
2019-01-22T16:45:32.521Z,-1.40
2019-01-22T16:48:01.550Z,-1.50
2019-01-22T16:50:32.940Z,-1.50
2019-01-22T16:53:03.600Z,-1.50
2019-01-22T16:55:33.996Z,-1.50
2019-01-22T16:58:16.657Z,-1.60
2019-01-22T17:00:45.571Z,-1.60
2019-01-22T17:03:14.561Z,-1.50
2019-01-22T17:05:43.622Z,-1.60
2019-01-22T17:08:12.620Z,-1.70
2019-01-22T17:10:41.617Z,-1.70
2019-01-22T17:13:10.608Z,-1.70
2019-01-22T17:15:39.611Z,-1.90
2019-01-22T17:18:09.077Z,-1.90
2019-01-22T17:20:40.676Z,-1.90
2019-01-22T17:23:09.637Z,-1.80
2019-01-22T17:25:38.652Z,-1.70
2019-01-22T17:28:07.642Z,-1.60
2019-01-22T17:30:36.669Z,-1.60
2019-01-22T17:33:16.721Z,-1.60
2019-01-22T17:35:48.169Z,-1.60
2019-01-22T17:38:18.990Z,-1.50
2019-01-22T17:40:47.938Z,-1.60
2019-01-22T17:43:16.855Z,-1.60
2019-01-22T17:45:45.812Z,-1.60
2019-01-22T17:48:14.793Z,-1.60
2019-01-22T17:50:43.738Z,-1.60
2019-01-22T17:53:12.643Z,-1.60
2019-01-22T17:55:41.570Z,-1.60
2019-01-22T17:58:10.633Z,-1.60
2019-01-22T18:00:40.733Z,-1.60
2019-01-22T18:03:09.753Z,-1.50
2019-01-22T18:05:38.790Z,-1.60
2019-01-22T18:08:09.785Z,-1.50
2019-01-22T18:10:38.432Z,-1.50
2019-01-22T18:13:07.522Z,-1.40
2019-01-22T18:15:36.510Z,-1.40
2019-01-22T18:18:05.930Z,-1.40
2019-01-22T18:20:34.882Z,-1.50
2019-01-22T18:23:03.909Z,-1.50
2019-01-22T18:25:32.913Z,-1.50
2019-01-22T18:28:01.937Z,-1.50
2019-01-22T18:30:30.873Z,-1.60
2019-01-22T18:32:59.861Z,-1.80
2019-01-22T18:35:38.135Z,-1.80
2019-01-22T18:38:05.837Z,-1.90
2019-01-22T18:40:34.966Z,-2.00
2019-01-22T18:43:04.069Z,-2.00
2019-01-22T18:45:33.085Z,-2.20
2019-01-22T18:48:02.076Z,-2.30
2019-01-22T18:50:30.997Z,-2.50
2019-01-22T18:52:59.936Z,-2.60
2019-01-22T18:55:28.844Z,-2.50
2019-01-22T18:57:57.757Z,-2.50
2019-01-22T19:00:26.738Z,-2.50
2019-01-22T19:02:55.664Z,-2.50
2019-01-22T19:05:24.640Z,-2.50
2019-01-22T19:07:53.490Z,-2.60
2019-01-22T19:10:24.429Z,-2.50
2019-01-22T19:12:53.421Z,-2.50
2019-01-22T19:15:23.019Z,-2.50
2019-01-22T19:17:52.037Z,-2.50
2019-01-22T19:20:21.025Z,-2.60
2019-01-22T19:22:49.932Z,-2.70
2019-01-22T19:25:41.133Z,-2.80
2019-01-22T19:28:09.985Z,-2.80
2019-01-22T19:30:38.824Z,-2.70
2019-01-22T19:33:07.725Z,-2.70
2019-01-22T19:35:36.754Z,-2.70
2019-01-22T19:38:05.745Z,-2.70
2019-01-22T19:40:34.622Z,-2.90
2019-01-22T19:43:03.617Z,-2.90
2019-01-22T19:45:34.871Z,-2.80
2019-01-22T19:48:03.779Z,-2.90
2019-01-22T19:50:32.719Z,-2.90
2019-01-22T19:53:01.676Z,-2.90
2019-01-22T19:55:30.602Z,-2.90
2019-01-22T19:57:59.469Z,-2.90
2019-01-22T20:00:33.922Z,-2.90
2019-01-22T20:03:03.234Z,-3.00
2019-01-22T20:05:32.310Z,-3.00
2019-01-22T20:08:01.308Z,-3.00
2019-01-22T20:10:30.234Z,-3.10
2019-01-22T20:12:59.264Z,-3.00
2019-01-22T20:15:28.134Z,-3.00
2019-01-22T20:17:57.148Z,-3.00
2019-01-22T20:20:26.071Z,-3.10
2019-01-22T20:22:55.029Z,-2.90
2019-01-22T20:25:23.967Z,-2.80
2019-01-22T20:27:52.921Z,-2.80
2019-01-22T20:30:40.604Z,-2.90
2019-01-22T20:33:09.609Z,-2.90
2019-01-22T20:35:38.620Z,-2.90
2019-01-22T20:38:08.137Z,-2.90
2019-01-22T20:40:36.978Z,-2.90
2019-01-22T20:43:06.021Z,-2.90
2019-01-22T20:45:35.022Z,-2.90
2019-01-22T20:48:04.086Z,-2.90
2019-01-22T20:50:32.925Z,-2.90
2019-01-22T20:53:01.852Z,-2.90
2019-01-22T20:55:30.855Z,-3.00
2019-01-22T20:57:59.764Z,-3.10
2019-01-22T21:00:28.767Z,-3.00
2019-01-22T21:02:57.810Z,-3.10
2019-01-22T21:05:28.636Z,-3.10
2019-01-22T21:07:57.666Z,-3.00
2019-01-22T21:10:28.686Z,-3.00
2019-01-22T21:12:57.781Z,-3.10
2019-01-22T21:15:26.805Z,-3.10
2019-01-22T21:17:55.668Z,-3.00
2019-01-22T21:20:24.673Z,-3.00
2019-01-22T21:22:53.632Z,-3.10
2019-01-22T21:25:22.732Z,-3.10
2019-01-22T21:27:51.690Z,-3.20
2019-01-22T21:30:26.381Z,-3.20
2019-01-22T21:32:55.305Z,-3.20
2019-01-22T21:35:24.217Z,-3.20
2019-01-22T21:37:53.193Z,-3.20
2019-01-22T21:40:22.029Z,-3.10
2019-01-22T21:42:51.104Z,-3.20
2019-01-22T21:45:20.325Z,-3.20
2019-01-22T21:47:49.237Z,-3.10
2019-01-22T21:50:18.251Z,-3.20
2019-01-22T21:52:47.243Z,-3.30
2019-01-22T21:55:18.302Z,-3.40
2019-01-22T21:57:47.134Z,-3.40
2019-01-22T22:00:21.165Z,-3.40
2019-01-22T22:02:50.168Z,-3.40
2019-01-22T22:05:21.104Z,-3.40
2019-01-22T22:07:50.204Z,-3.40
2019-01-22T22:10:20.376Z,-3.30
2019-01-22T22:12:49.390Z,-3.20
2019-01-22T22:15:20.455Z,-3.20
2019-01-22T22:17:49.453Z,-3.20
2019-01-22T22:20:18.468Z,-3.20
2019-01-22T22:22:47.393Z,-3.20
2019-01-22T22:25:17.994Z,-3.20
2019-01-22T22:27:46.950Z,-3.20
2019-01-22T22:30:27.545Z,-3.20
2019-01-22T22:32:56.558Z,-3.20
2019-01-22T22:35:25.495Z,-3.00
2019-01-22T22:37:54.772Z,-3.00
2019-01-22T22:40:23.813Z,-3.00
2019-01-22T22:42:52.809Z,-3.00
2019-01-22T22:45:22.295Z,-2.90
2019-01-22T22:47:51.284Z,-2.80
2019-01-22T22:50:25.410Z,-2.80
2019-01-22T22:52:54.408Z,-2.80
2019-01-22T22:55:23.421Z,-2.90
2019-01-22T22:57:52.344Z,-2.80
2019-01-22T23:00:58.552Z,-2.80
2019-01-22T23:03:27.664Z,-2.80
2019-01-22T23:05:56.590Z,-2.80
2019-01-22T23:08:25.571Z,-2.90
2019-01-22T23:10:54.573Z,-3.00
2019-01-22T23:13:23.404Z,-3.00
2019-01-22T23:15:52.312Z,-3.00
2019-01-22T23:18:21.322Z,-2.90
2019-01-22T23:20:50.176Z,-2.80
2019-01-22T23:23:19.110Z,-2.80
2019-01-22T23:25:47.956Z,-2.80
2019-01-22T23:28:16.859Z,-2.70
2019-01-22T23:30:45.808Z,-2.70
2019-01-22T23:33:14.729Z,-2.60
2019-01-22T23:35:43.712Z,-2.60
2019-01-22T23:38:12.565Z,-2.50
2019-01-22T23:40:41.409Z,-2.70
2019-01-22T23:43:10.391Z,-2.70
2019-01-22T23:45:39.340Z,-2.80
2019-01-22T23:48:08.260Z,-2.80
2019-01-22T23:50:37.117Z,-2.90
2019-01-22T23:53:06.038Z,-2.90
2019-01-22T23:55:34.871Z,-2.90
2019-01-22T23:58:03.792Z,-2.90
